X

Important NEWS



New Hub Active

Miami is our new hub! Old members can request transfer via hr@dlxairways.net

Thank you very much and have nice flight.


Deluxe Airways.

X

Tours



Hello again, we created one nice test tour for all pilots to attend. also this is ment to be testing of our tour system

Available Tours

If you find some issues please inform us.

Thank you very much and have nice flight.


Deluxe Airways.

 METAR AND TAF INFORMATION
ArrayMETAR FOR LFBO
46017022 7 LFBO 191100Z AUTO 15003KT 120V180 9999 FEW007 OVC025 05/03 Q1014 NOSIG LFBO 2019-01-19T11:00:00Z 43.62 1.37 5.0 3.0 150 3 6.21 29.940945 TRUE TRUE MVFR METAR 153.0 LFBO 191030Z AUTO 15004KT 9999 SCT020 OVC025 04/03 Q1015 NOSIG LFBO 2019-01-19T10:30:00Z 43.62 1.37 4.0 3.0 150 4 6.21 29.970472 TRUE TRUE MVFR METAR 153.0 LFBO 191000Z AUTO 17003KT 8000 -RA BKN019 OVC030 04/02 Q1015 NOSIG LFBO 2019-01-19T10:00:00Z 43.62 1.37 4.0 2.0 170 3 4.97 29.970472 TRUE TRUE -RA MVFR METAR 153.0 LFBO 190930Z AUTO 18004KT 9999 BKN024 OVC030 03/02 Q1015 NOSIG LFBO 2019-01-19T09:30:00Z 43.62 1.37 3.0 2.0 180 4 6.21 29.970472 TRUE TRUE MVFR METAR 153.0

 AIRPORT MAP

 RUNWAY INFORMATION
Runway 14L Runway length 9843 ft Runway width 148 ft
Runway elevation 490 ft Runway displaced threshold 0 ft Runway heading 143
Runway 32R Runway length 9843 ft Runway width 148 ft
Runway elevation 497 ft Runway displaced threshold 0 ft Runway heading 323
Runway 14R Runway length 11483 ft Runway width 148 ft
Runway elevation 488 ft Runway displaced threshold 0 ft Runway heading 143
Runway 32L Runway length 11483 ft Runway width 148 ft
Runway elevation 497 ft Runway displaced threshold 0 ft Runway heading 323

 AIRPORT FREQUENCIES
Type AFIS Name TOULOUSE I Frequency 121.25 MHZ
Type APP Name APP Frequency 121.1 MHZ
Type APP Name TOULOUSE A Frequency 125.175 MHZ
Type ATIS Name ATIS Frequency 123.125 MHZ
Type CLD Name CLNC DEL Frequency 121.7 MHZ
Type GND Name GND Frequency 121.9 MHZ
Type TWR Name TWR Frequency 118.1 MHZ

 AIRPORT NEAR NAVIGATION AIDS
Type NDB Name Toulouse Frequency 415 KHZ
Type VOR-DME Name Toulouse Frequency 117700 KHZ
Type NDB Name Toulouse Frequency 423 KHZ
Type NDB Name Toulouse Frequency 406 KHZ



Powered by Virtual Airlines Manager [v2.6.2]

Template code change by DeluxeAir